Time;durP1;ratioP1;P1;durP2;ratioP2;P2;SDS_P1;SDS_P2;PMS_P1;PMS_P2;Temp;Humidity;BMP_temperature;BMP_pressure;BME280_temperature;BME280_humidity;BME280_pressure;Samples;Min_cycle;Max_cycle;Signal;HPM_P1;HPM_P2
2023/06/12 00:01:30;;;;;;;11.73;6.03;;;18.60;1.00;;;;;;4994208;28;20823;-74
2023/06/12 00:04:08;;;;;;;10.97;6.60;;;18.60;1.00;;;;;;4994341;28;20189;-78
2023/06/12 00:06:39;;;;;;;7.23;5.63;;;18.60;1.00;;;;;;4981052;28;20261;-79
2023/06/12 00:09:09;;;;;;;8.17;6.37;;;18.50;1.00;;;;;;4982760;28;20791;-78
2023/06/12 00:11:40;;;;;;;11.80;6.57;;;18.50;1.00;;;;;;4998752;28;20733;-78
2023/06/12 00:14:50;;;;;;;7.97;5.93;;;18.40;1.00;;;;;;4997698;28;20932;-78
2023/06/12 00:17:20;;;;;;;7.60;6.40;;;18.40;1.00;;;;;;4991241;28;20408;-78
2023/06/12 00:19:46;;;;;;;9.07;6.70;;;18.40;1.00;;;;;;4994433;28;20435;-74
2023/06/12 00:22:12;;;;;;;12.37;6.20;;;18.30;1.00;;;;;;4997880;28;20419;-74
2023/06/12 00:24:37;;;;;;;6.90;5.93;;;18.30;1.00;;;;;;5001414;28;20177;-74
2023/06/12 00:27:04;;;;;;;6.80;5.93;;;18.20;1.00;;;;;;4997912;28;20207;-74
2023/06/12 00:29:32;;;;;;;7.63;6.23;;;18.20;1.00;;;;;;4997614;28;20287;-74
2023/06/12 00:31:58;;;;;;;7.53;6.43;;;18.10;1.00;;;;;;4993947;28;20533;-74
2023/06/12 00:34:24;;;;;;;10.63;6.50;;;18.10;1.00;;;;;;5009871;28;20910;-74
2023/06/12 00:36:50;;;;;;;10.70;6.30;;;18.00;1.00;;;;;;4997064;28;20207;-75
2023/06/12 00:39:15;;;;;;;9.70;7.03;;;18.00;1.00;;;;;;5008936;28;20225;-74
2023/06/12 00:41:41;;;;;;;11.40;6.77;;;17.90;1.00;;;;;;4997071;28;20185;-74
2023/06/12 00:44:08;;;;;;;6.97;6.27;;;17.90;1.00;;;;;;4981699;28;20191;-74
2023/06/12 00:46:38;;;;;;;8.93;6.37;;;17.80;1.00;;;;;;4982481;28;20529;-74
2023/06/12 00:49:32;;;;;;;9.73;6.10;;;17.80;1.00;;;;;;4994234;28;20464;-78
2023/06/12 00:51:58;;;;;;;8.77;6.23;;;17.70;1.00;;;;;;4993719;28;20435;-79
2023/06/12 00:54:26;;;;;;;7.73;5.90;;;17.60;1.00;;;;;;5011275;28;20417;-79
2023/06/12 00:57:32;;;;;;;8.70;6.70;;;17.60;1.00;;;;;;5002512;28;20400;-78
2023/06/12 01:00:00;;;;;;;11.47;6.80;;;17.50;1.00;;;;;;4997023;28;20402;-78
2023/06/12 01:02:44;;;;;;;10.53;6.93;;;17.50;1.00;;;;;;4996766;28;20948;-78
2023/06/12 01:05:50;;;;;;;15.10;7.17;;;17.50;1.00;;;;;;4996334;28;20435;-79
2023/06/12 01:08:53;;;;;;;10.73;6.73;;;17.40;1.00;;;;;;4991595;28;20480;-78
2023/06/12 01:11:22;;;;;;;8.77;6.60;;;17.40;1.00;;;;;;4921971;29;20950;-80
2023/06/12 01:14:08;;;;;;;8.00;6.70;;;17.30;1.00;;;;;;4924403;29;20408;-79
2023/06/12 01:16:40;;;;;;;10.40;6.83;;;17.20;1.00;;;;;;4922393;29;20439;-78
2023/06/12 01:19:10;;;;;;;15.27;7.00;;;17.10;1.00;;;;;;4926844;29;20511;-78
2023/06/12 01:21:44;;;;;;;9.43;6.90;;;17.10;1.00;;;;;;4920012;29;20417;-74
2023/06/12 01:24:30;;;;;;;8.50;6.60;;;17.10;1.00;;;;;;4923154;29;20476;-74
2023/06/12 01:27:30;;;;;;;14.07;6.60;;;17.10;1.00;;;;;;4917543;29;20438;-74
2023/06/12 01:30:32;;;;;;;8.27;6.80;;;17.00;1.00;;;;;;4866383;29;20455;-74
2023/06/12 01:33:03;;;;;;;12.37;6.57;;;17.00;1.00;;;;;;4877905;29;20446;-74
2023/06/12 01:35:38;;;;;;;15.53;7.30;;;16.90;1.00;;;;;;4861520;29;20436;-74
2023/06/12 01:38:27;;;;;;;8.90;6.90;;;16.90;1.00;;;;;;4874604;29;20525;-74
2023/06/12 01:40:59;;;;;;;10.07;7.07;;;16.80;1.00;;;;;;4861277;29;20523;-74
2023/06/12 01:43:25;;;;;;;9.30;6.67;;;16.80;1.00;;;;;;4871471;29;20465;-74
2023/06/12 01:45:51;;;;;;;9.87;7.27;;;16.70;1.00;;;;;;4864792;29;20445;-74
2023/06/12 01:48:16;;;;;;;9.83;7.50;;;16.70;1.00;;;;;;4868374;29;20229;-74
2023/06/12 01:50:43;;;;;;;8.50;6.67;;;16.60;1.00;;;;;;4912428;29;20191;-74
2023/06/12 01:53:15;;;;;;;9.73;7.30;;;16.60;1.00;;;;;;4913230;29;20761;-74
2023/06/12 01:55:44;;;;;;;17.13;8.17;;;16.50;1.00;;;;;;4907924;29;20413;-74
2023/06/12 01:58:10;;;;;;;12.03;7.87;;;16.50;1.00;;;;;;4900757;29;20918;-74
2023/06/12 02:00:36;;;;;;;13.73;7.37;;;16.40;1.00;;;;;;4882288;29;20434;-74
2023/06/12 02:03:10;;;;;;;9.53;6.80;;;16.50;1.00;;;;;;4887157;29;20194;-74
2023/06/12 02:05:50;;;;;;;9.00;7.70;;;16.40;1.00;;;;;;4917119;28;20203;-79
2023/06/12 02:08:20;;;;;;;10.83;7.50;;;16.40;1.00;;;;;;4989866;28;21011;-78
2023/06/12 02:10:50;;;;;;;14.43;7.47;;;16.30;1.00;;;;;;4990385;28;20425;-78
2023/06/12 02:13:26;;;;;;;9.37;7.13;;;16.30;1.00;;;;;;4995472;28;20394;-79
2023/06/12 02:16:06;;;;;;;13.23;7.60;;;16.20;1.00;;;;;;4976055;28;20906;-79
2023/06/12 02:18:40;;;;;;;12.43;7.30;;;16.20;1.00;;;;;;4976417;28;20491;-79
2023/06/12 02:21:06;;;;;;;18.27;7.37;;;16.20;1.00;;;;;;4977913;28;20443;-74
2023/06/12 02:23:31;;;;;;;10.23;8.20;;;16.20;1.00;;;;;;4995084;28;20421;-74
2023/06/12 02:26:16;;;;;;;9.07;7.67;;;16.10;1.00;;;;;;4989572;28;20181;-74
2023/06/12 02:28:42;;;;;;;19.40;7.80;;;16.10;1.00;;;;;;4988377;28;20198;-75
2023/06/12 02:31:08;;;;;;;12.03;7.43;;;16.10;1.00;;;;;;4992717;28;20426;-74
2023/06/12 02:33:37;;;;;;;14.43;7.53;;;16.00;1.00;;;;;;4985215;28;20800;-75
2023/06/12 02:36:14;;;;;;;11.30;7.50;;;16.10;1.00;;;;;;4974247;28;20826;-75
2023/06/12 02:38:45;;;;;;;13.60;7.60;;;16.00;1.00;;;;;;5005341;28;20442;-74
2023/06/12 02:41:12;;;;;;;12.30;7.33;;;16.00;1.00;;;;;;4984140;28;20444;-74
2023/06/12 02:43:38;;;;;;;13.80;7.90;;;15.90;1.00;;;;;;4994973;28;20519;-74
2023/06/12 02:46:04;;;;;;;12.73;7.83;;;15.90;1.00;;;;;;4995533;28;20443;-74
2023/06/12 02:48:50;;;;;;;12.40;8.40;;;15.80;1.00;;;;;;4995224;28;20414;-74
2023/06/12 02:51:44;;;;;;;9.03;7.20;;;15.80;1.00;;;;;;4982009;28;20191;-80
2023/06/12 02:54:11;;;;;;;20.13;8.00;;;15.80;1.00;;;;;;4996415;28;20426;-79
2023/06/12 02:56:56;;;;;;;9.60;6.93;;;15.80;1.00;;;;;;4986910;28;20415;-79
2023/06/12 02:59:26;;;;;;;22.00;8.10;;;15.80;1.00;;;;;;4976779;28;20507;-79
2023/06/12 03:05:15;;;;;;;10.53;8.00;;;15.70;1.00;;;;;;4978745;28;20504;-88
2023/06/12 03:08:20;;;;;;;11.60;7.60;;;15.70;1.00;;;;;;4994005;28;20468;-89
2023/06/12 03:10:46;;;;;;;9.63;7.50;;;15.70;1.00;;;;;;4977782;28;20412;-89
2023/06/12 03:13:32;;;;;;;10.63;7.77;;;15.70;1.00;;;;;;4978064;28;20403;-89
2023/06/12 03:19:20;;;;;;;9.97;7.43;;;15.70;1.00;;;;;;4975719;28;20465;-89
2023/06/12 03:22:14;;;;;;;12.33;8.03;;;15.60;1.00;;;;;;4993850;28;20410;-84
2023/06/12 03:24:53;;;;;;;11.43;8.03;;;15.70;1.00;;;;;;4993865;28;20205;-84
2023/06/12 03:27:47;;;;;;;11.60;8.23;;;15.60;1.00;;;;;;4994619;28;20399;-84
2023/06/12 03:33:51;;;;;;;8.97;7.50;;;15.60;1.00;;;;;;4980358;28;20375;-85
2023/06/12 03:36:25;;;;;;;11.53;8.10;;;15.60;1.00;;;;;;4975987;28;20459;-89
2023/06/12 03:38:51;;;;;;;10.33;8.00;;;15.70;1.00;;;;;;4994554;28;20519;-89
2023/06/12 03:48:38;;;;;;;12.13;8.57;;;15.70;1.00;;;;;;4975665;28;20332;-90
2023/06/12 03:51:26;;;;;;;12.90;9.00;;;15.70;1.00;;;;;;4977248;28;20944;-85
2023/06/12 03:53:57;;;;;;;14.40;8.30;;;15.70;1.00;;;;;;4983563;28;20445;-84
2023/06/12 04:00:09;;;;;;;11.33;7.90;;;15.70;1.00;;;;;;4985324;28;20492;-84
2023/06/12 04:02:36;;;;;;;13.43;7.70;;;15.70;1.00;;;;;;4978961;28;20875;-84
2023/06/12 04:08:44;;;;;;;13.73;8.20;;;15.80;1.00;;;;;;4990941;28;20419;-84
2023/06/12 04:15:08;;;;;;;11.40;7.80;;;15.90;1.00;;;;;;4993188;28;20409;-84
2023/06/12 04:21:09;;;;;;;11.03;7.90;;;16.10;1.00;;;;;;4982763;28;20447;-89
2023/06/12 04:23:51;;;;;;;10.10;7.33;;;16.30;1.00;;;;;;4976396;28;20578;-90
2023/06/12 04:26:43;;;;;;;10.43;7.43;;;16.30;1.00;;;;;;4975340;28;20438;-90
2023/06/12 04:32:47;;;;;;;9.67;7.00;;;16.50;1.00;;;;;;4994319;28;20388;-90
2023/06/12 04:45:18;;;;;;;13.20;7.90;;;17.00;1.00;;;;;;4994292;28;20759;-90
2023/06/12 04:51:38;;;;;;;10.40;7.60;;;17.20;1.00;;;;;;4994362;28;20195;-85
2023/06/12 04:54:45;;;;;;;12.20;8.67;;;17.30;1.00;;;;;;4975877;28;20448;-90
2023/06/12 05:04:08;;;;;;;12.13;7.83;;;17.60;1.00;;;;;;4990943;28;20425;-89
2023/06/12 05:06:57;;;;;;;17.37;8.73;;;17.70;1.00;;;;;;4991908;28;20490;-86
2023/06/12 05:09:26;;;;;;;14.23;8.30;;;17.80;1.00;;;;;;4987957;28;20406;-86
2023/06/12 05:12:14;;;;;;;14.23;7.10;;;17.90;1.00;;;;;;4992423;28;20422;-85
2023/06/12 05:15:06;;;;;;;8.80;7.37;;;18.10;1.00;;;;;;4977442;28;20965;-83
2023/06/12 05:17:33;;;;;;;13.97;7.47;;;18.20;1.00;;;;;;4991848;28;20420;-84
2023/06/12 05:20:44;;;;;;;12.00;8.00;;;18.30;1.00;;;;;;4987811;28;20464;-84
2023/06/12 05:23:50;;;;;;;12.13;7.50;;;18.40;1.00;;;;;;4993555;28;20400;-84
2023/06/12 05:26:37;;;;;;;15.83;6.73;;;18.60;1.00;;;;;;4993625;28;20413;-84
2023/06/12 05:29:26;;;;;;;10.20;8.03;;;18.70;1.00;;;;;;4970873;28;20466;-84
2023/06/12 05:32:08;;;;;;;19.60;7.40;;;18.80;1.00;;;;;;4992011;28;20458;-84
2023/06/12 05:35:14;;;;;;;11.07;7.20;;;19.00;1.00;;;;;;4993916;28;20459;-84
2023/06/12 05:37:40;;;;;;;13.13;6.87;;;19.10;1.00;;;;;;4996927;28;20512;-85
2023/06/12 05:43:32;;;;;;;13.20;6.80;;;19.40;1.00;;;;;;4990130;28;20449;-84
2023/06/12 05:45:58;;;;;;;10.77;6.80;;;19.60;1.00;;;;;;4972713;28;20537;-84
2023/06/12 05:49:08;;;;;;;15.73;6.37;;;19.70;1.00;;;;;;4989910;28;20954;-84
2023/06/12 05:51:56;;;;;;;12.07;7.07;;;19.90;1.00;;;;;;4987081;28;20176;-87
2023/06/12 05:54:27;;;;;;;15.20;7.40;;;20.10;1.00;;;;;;5004723;28;20443;-93
2023/06/12 05:57:38;;;;;;;17.50;6.57;;;20.20;1.00;;;;;;4985249;28;20453;-94
2023/06/12 06:07:09;;;;;;;10.37;6.93;;;20.80;1.00;;;;;;4994392;28;20486;-91
2023/06/12 06:09:38;;;;;;;11.60;6.40;;;21.00;1.00;;;;;;4977594;28;20443;-88
2023/06/12 06:15:26;;;;;;;8.73;7.00;;;21.30;1.00;;;;;;4988839;28;20407;-88
2023/06/12 06:18:10;;;;;;;9.93;6.40;;;21.40;1.00;;;;;;4969819;28;20521;-87
2023/06/12 06:21:02;;;;;;;9.93;6.63;;;21.60;1.00;;;;;;4975635;28;20197;-88
2023/06/12 06:23:50;;;;;;;6.33;5.63;;;21.70;1.00;;;;;;4959806;28;20437;-94
2023/06/12 06:26:37;;;;;;;9.27;6.27;;;21.90;1.00;;;;;;4975615;28;20446;-95
2023/06/12 06:29:03;;;;;;;11.27;5.90;;;21.90;1.00;;;;;;4982309;28;20814;-94
2023/06/12 06:34:56;;;;;;;8.50;6.10;;;22.20;1.00;;;;;;4995972;28;20202;-94
2023/06/12 06:37:44;;;;;;;8.50;6.37;;;22.30;1.00;;;;;;4979115;28;20437;-88
2023/06/12 06:46:54;;;;;;;8.33;6.80;;;22.70;1.00;;;;;;4986440;28;22396;-85
2023/06/12 06:49:27;;;;;;;7.00;6.20;;;22.80;1.00;;;;;;4976819;28;20442;-85
2023/06/12 06:51:52;;;;;;;10.40;6.90;;;22.90;1.00;;;;;;4974860;28;20198;-85
2023/06/12 06:55:14;;;;;;;11.80;6.67;;;23.00;1.00;;;;;;4986213;28;20925;-87
2023/06/12 07:01:02;;;;;;;12.77;6.57;;;23.20;1.00;;;;;;4982765;28;20461;-88
2023/06/12 07:06:49;;;;;;;8.23;6.43;;;23.40;1.00;;;;;;4984447;28;20266;-87
2023/06/12 07:13:20;;;;;;;15.87;6.30;;;21.80;1.00;;;;;;4997833;28;20215;-86
2023/06/12 07:23:14;;;;;;;17.53;6.47;;;24.20;1.00;;;;;;4984689;28;20396;-86
2023/06/12 07:29:03;;;;;;;8.30;6.07;;;24.40;1.00;;;;;;4983945;28;20501;-88
2023/06/12 07:31:56;;;;;;;13.27;6.80;;;24.50;1.00;;;;;;4977822;28;20857;-88
2023/06/12 07:34:38;;;;;;;13.43;5.97;;;24.60;1.00;;;;;;4977193;28;20447;-88
2023/06/12 07:41:21;;;;;;;7.53;6.30;;;24.80;1.00;;;;;;4994811;28;20480;-89
2023/06/12 07:47:08;;;;;;;8.93;5.97;;;24.90;1.00;;;;;;4992015;28;20553;-91
2023/06/12 07:56:18;;;;;;;9.17;6.70;;;25.30;1.00;;;;;;4976368;28;20816;-90
2023/06/12 07:59:09;;;;;;;7.80;6.07;;;25.60;1.00;;;;;;4976760;28;20458;-81
2023/06/12 08:01:39;;;;;;;8.40;6.37;;;25.60;1.00;;;;;;4972015;28;20256;-83
2023/06/12 08:04:11;;;;;;;6.73;6.13;;;25.70;1.00;;;;;;4995966;28;20408;-82
2023/06/12 08:06:40;;;;;;;7.93;6.07;;;25.80;1.00;;;;;;4997185;28;20427;-83
2023/06/12 08:15:56;;;;;;;13.93;5.90;;;26.20;1.00;;;;;;4989129;28;20464;-84
2023/06/12 08:18:23;;;;;;;7.63;5.93;;;;;;;;;;5005845;28;20936;-89
2023/06/12 08:21:32;;;;;;;8.77;5.97;;;26.40;1.00;;;;;;4964573;28;20432;-89
2023/06/12 08:24:51;;;;;;;6.20;5.60;;;26.50;1.00;;;;;;4990752;28;20427;-91
2023/06/12 08:28:08;;;;;;;9.13;5.87;;;26.50;1.00;;;;;;4971135;28;20449;-91
2023/06/12 08:30:34;;;;;;;9.30;6.10;;;26.60;1.00;;;;;;4976743;28;20460;-91
2023/06/12 08:33:26;;;;;;;6.93;5.90;;;26.70;1.00;;;;;;4975013;28;20413;-92
2023/06/12 08:36:00;;;;;;;6.87;5.97;;;26.80;1.00;;;;;;4980665;28;20195;-91
2023/06/12 08:45:09;;;;;;;6.43;5.83;;;;;;;;;;4986864;28;20414;-89
2023/06/12 08:54:20;;;;;;;8.03;6.23;;;27.30;1.00;;;;;;5001387;28;20463;-91
2023/06/12 08:56:46;;;;;;;6.37;5.77;;;27.40;1.00;;;;;;4980413;28;20511;-92
2023/06/12 08:59:20;;;;;;;8.57;6.33;;;27.50;1.00;;;;;;4997752;28;20538;-89
2023/06/12 09:02:39;;;;;;;8.00;6.53;;;27.40;1.00;;;;;;4988254;28;20426;-91
2023/06/12 09:05:57;;;;;;;9.23;5.90;;;27.50;1.00;;;;;;4969402;28;20426;-91
2023/06/12 09:08:58;;;;;;;6.13;5.57;;;27.40;1.00;;;;;;4969621;28;20540;-91
2023/06/12 09:14:48;;;;;;;7.20;5.77;;;27.50;1.00;;;;;;4984150;28;20437;-91
2023/06/12 09:17:56;;;;;;;6.40;5.80;;;27.70;1.00;;;;;;4979708;28;20430;-91
2023/06/12 09:20:32;;;;;;;8.20;5.70;;;27.70;1.00;;;;;;4975986;28;20465;-91
2023/06/12 09:23:50;;;;;;;6.50;5.70;;;27.80;1.00;;;;;;4975905;28;20446;-91
2023/06/12 09:26:41;;;;;;;6.27;5.67;;;28.00;1.00;;;;;;4986020;28;20947;-91
2023/06/12 09:29:06;;;;;;;6.87;5.77;;;28.40;1.00;;;;;;4971708;28;20539;-91
2023/06/12 09:38:51;;;;;;;7.80;5.57;;;29.20;1.00;;;;;;5003679;28;20418;-91
2023/06/12 09:44:39;;;;;;;8.80;5.90;;;29.40;1.00;;;;;;4987194;28;20424;-88
2023/06/12 09:47:26;;;;;;;9.53;5.40;;;29.70;1.00;;;;;;4976019;28;20421;-91
2023/06/12 09:53:17;;;;;;;9.40;5.60;;;29.80;1.00;;;;;;4996353;28;20977;-89
2023/06/12 09:59:19;;;;;;;8.83;6.00;;;29.90;1.00;;;;;;5009247;28;20664;-91
2023/06/12 10:15:39;;;;;;;7.40;5.10;;;30.10;1.00;;;;;;4985063;28;20400;-90
2023/06/12 10:18:08;;;;;;;5.30;4.90;;;30.30;1.00;;;;;;4993037;28;20543;-87
2023/06/12 10:21:26;;;;;;;5.43;4.93;;;30.50;1.00;;;;;;4977758;28;21007;-89
2023/06/12 10:24:14;;;;;;;6.53;5.17;;;30.40;1.00;;;;;;4971631;28;20697;-88
2023/06/12 10:33:25;;;;;;;5.60;5.10;;;;;;;;;;4994408;28;20424;-88
2023/06/12 10:36:10;;;;;;;9.30;5.27;;;30.30;1.00;;;;;;4978556;28;20548;-88
2023/06/12 10:39:02;;;;;;;10.03;5.40;;;30.30;1.00;;;;;;4978248;28;20461;-87
2023/06/12 10:41:54;;;;;;;6.50;5.67;;;30.40;1.00;;;;;;4977216;28;20571;-91
2023/06/12 10:48:04;;;;;;;5.20;4.80;;;30.50;1.00;;;;;;4996261;28;20436;-90
2023/06/12 10:51:20;;;;;;;5.93;5.33;;;30.50;1.00;;;;;;4984667;28;20434;-90
2023/06/12 10:53:54;;;;;;;13.00;5.70;;;30.30;1.00;;;;;;4974989;28;20433;-91
2023/06/12 10:56:21;;;;;;;7.30;5.40;;;30.20;1.00;;;;;;4974795;28;20758;-88
2023/06/12 11:02:28;;;;;;;6.27;5.67;;;30.00;1.00;;;;;;4990806;28;20760;-88
2023/06/12 11:05:05;;;;;;;5.60;5.10;;;30.00;1.00;;;;;;4977864;28;21003;-87
2023/06/12 11:07:47;;;;;;;8.00;6.03;;;29.90;1.00;;;;;;4977772;28;20420;-87
2023/06/12 11:10:56;;;;;;;8.80;5.77;;;29.80;1.00;;;;;;4977745;28;20464;-88
2023/06/12 11:16:45;;;;;;;6.23;5.43;;;;;;;;;;4994415;28;20439;-88
2023/06/12 11:19:38;;;;;;;6.20;5.60;;;29.90;1.00;;;;;;4990799;28;20496;-88
2023/06/12 11:28:54;;;;;;;7.10;5.80;;;30.60;1.00;;;;;;4991846;28;20436;-88
2023/06/12 11:34:42;;;;;;;6.23;5.63;;;;;;;;;;4985536;28;21152;-87
2023/06/12 11:40:29;;;;;;;5.17;4.60;;;30.80;1.00;;;;;;4992717;28;20479;-74
2023/06/12 11:42:57;;;;;;;6.83;5.53;;;30.90;1.00;;;;;;4994121;28;20930;-74
2023/06/12 11:45:23;;;;;;;6.50;5.90;;;30.70;1.00;;;;;;4993911;28;20182;-75
2023/06/12 11:47:51;;;;;;;8.33;6.27;;;30.70;1.00;;;;;;4994199;28;20419;-74
2023/06/12 11:50:19;;;;;;;7.53;5.77;;;30.80;1.00;;;;;;4989246;28;20174;-74
2023/06/12 11:52:45;;;;;;;12.20;5.80;;;31.00;1.00;;;;;;4994105;28;20817;-74
2023/06/12 11:55:16;;;;;;;11.13;5.30;;;31.20;1.00;;;;;;4989774;28;20430;-74
2023/06/12 11:57:51;;;;;;;6.20;5.43;;;31.40;1.00;;;;;;4992402;28;20479;-74
2023/06/12 12:00:21;;;;;;;5.70;5.20;;;31.20;1.00;;;;;;4993888;28;20931;-74
2023/06/12 12:02:53;;;;;;;5.60;5.10;;;31.10;1.00;;;;;;4993696;28;21006;-73
2023/06/12 12:05:22;;;;;;;9.57;5.40;;;31.10;1.00;;;;;;4993647;28;20413;-73
2023/06/12 12:07:57;;;;;;;12.60;5.53;;;30.90;1.00;;;;;;4991184;28;20905;-73
2023/06/12 12:10:26;;;;;;;9.00;5.53;;;30.90;1.00;;;;;;4986430;28;20793;-73
2023/06/12 12:13:00;;;;;;;7.00;5.60;;;30.80;1.00;;;;;;4984831;28;20424;-74
2023/06/12 12:15:29;;;;;;;6.83;4.90;;;30.90;1.00;;;;;;4994320;28;20441;-74
2023/06/12 12:17:55;;;;;;;12.03;5.20;;;31.00;1.00;;;;;;4992662;28;20946;-74
2023/06/12 12:20:25;;;;;;;7.53;5.37;;;30.90;1.00;;;;;;4996262;28;20452;-74
2023/06/12 12:22:52;;;;;;;5.90;5.30;;;31.00;1.00;;;;;;4997082;28;20432;-74
2023/06/12 12:25:23;;;;;;;7.97;5.43;;;31.10;1.00;;;;;;4995249;28;20436;-75
2023/06/12 12:27:51;;;;;;;5.73;5.23;;;31.00;1.00;;;;;;4988170;28;20444;-73
2023/06/12 12:30:17;;;;;;;6.47;5.27;;;31.00;1.00;;;;;;4978551;28;20814;-74
2023/06/12 12:32:47;;;;;;;10.03;5.47;;;31.20;1.00;;;;;;4996103;28;20970;-74
2023/06/12 12:35:15;;;;;;;7.60;5.50;;;31.30;1.00;;;;;;4996075;28;20816;-74
2023/06/12 12:37:43;;;;;;;6.10;5.50;;;31.30;1.00;;;;;;4978994;28;20487;-74
2023/06/12 12:40:10;;;;;;;6.93;5.20;;;31.30;1.00;;;;;;4977023;28;20449;-73
2023/06/12 12:42:40;;;;;;;5.47;4.80;;;31.20;1.00;;;;;;4994326;28;20408;-74
2023/06/12 12:45:08;;;;;;;6.00;5.40;;;31.40;1.00;;;;;;4987984;28;20905;-74
2023/06/12 12:47:34;;;;;;;14.00;5.20;;;31.30;1.00;;;;;;4995666;28;20428;-74
2023/06/12 12:50:00;;;;;;;7.50;5.10;;;31.30;1.00;;;;;;4996940;28;20436;-73
2023/06/12 12:52:27;;;;;;;5.37;4.87;;;31.30;1.00;;;;;;4996798;28;20579;-74
2023/06/12 12:54:52;;;;;;;5.07;4.67;;;31.40;1.00;;;;;;4996463;28;20424;-74
2023/06/12 12:57:18;;;;;;;6.80;4.93;;;31.40;1.00;;;;;;4996708;28;20510;-72
2023/06/12 12:59:45;;;;;;;7.47;5.10;;;31.50;1.00;;;;;;4995635;28;20205;-72
2023/06/12 13:02:11;;;;;;;5.70;5.10;;;31.60;1.00;;;;;;4996793;28;20170;-73
2023/06/12 13:04:37;;;;;;;7.50;5.00;;;31.60;1.00;;;;;;4996862;28;20417;-73
2023/06/12 13:07:03;;;;;;;6.90;4.87;;;31.70;1.00;;;;;;4995157;28;21003;-73
2023/06/12 13:09:29;;;;;;;6.20;5.30;;;31.80;1.00;;;;;;4990444;28;20425;-72
2023/06/12 13:11:56;;;;;;;7.60;4.73;;;31.80;1.00;;;;;;4993708;28;20927;-72
2023/06/12 13:14:22;;;;;;;7.93;4.70;;;31.70;1.00;;;;;;4996356;28;20433;-72
2023/06/12 13:16:50;;;;;;;5.87;5.03;;;31.80;1.00;;;;;;4995740;28;20523;-72
2023/06/12 13:19:16;;;;;;;6.20;4.60;;;31.80;1.00;;;;;;4989502;28;20466;-73
2023/06/12 13:21:42;;;;;;;9.77;4.67;;;31.80;1.00;;;;;;4996143;28;20905;-73
2023/06/12 13:24:09;;;;;;;4.73;4.33;;;31.90;1.00;;;;;;4986088;28;20512;-72
2023/06/12 13:26:35;;;;;;;5.83;4.43;;;32.00;1.00;;;;;;4993351;28;20459;-73
2023/06/12 13:29:01;;;;;;;5.00;4.50;;;32.00;1.00;;;;;;4997246;28;20482;-74
2023/06/12 13:31:28;;;;;;;11.73;4.40;;;32.10;1.00;;;;;;4993681;28;20852;-74
2023/06/12 13:33:53;;;;;;;7.23;5.00;;;32.20;1.00;;;;;;4996405;28;20409;-74
2023/06/12 13:36:19;;;;;;;4.97;4.40;;;32.30;1.00;;;;;;4995550;28;20507;-74
2023/06/12 13:38:46;;;;;;;5.50;4.13;;;32.20;1.00;;;;;;5003806;28;20199;-73
2023/06/12 13:41:12;;;;;;;5.40;4.87;;;32.10;1.00;;;;;;4996272;28;20166;-74
2023/06/12 13:43:39;;;;;;;9.40;4.10;;;32.20;1.00;;;;;;4996594;28;20450;-72
2023/06/12 13:46:09;;;;;;;6.00;4.00;;;32.10;1.00;;;;;;4996202;28;20927;-72
2023/06/12 13:48:35;;;;;;;5.10;4.60;;;32.10;1.00;;;;;;4995603;28;20467;-73
2023/06/12 13:51:01;;;;;;;4.83;4.40;;;32.20;1.00;;;;;;4999042;28;20460;-74
2023/06/12 13:53:27;;;;;;;8.33;4.33;;;32.20;1.00;;;;;;4996103;28;20455;-73
2023/06/12 13:55:53;;;;;;;10.13;4.40;;;32.20;1.00;;;;;;4999901;28;20264;-73
2023/06/12 13:58:19;;;;;;;9.60;4.27;;;32.10;1.00;;;;;;4988604;28;21005;-75
2023/06/12 14:00:45;;;;;;;4.70;4.30;;;32.00;1.00;;;;;;4990460;28;20194;-75
2023/06/12 14:03:11;;;;;;;6.70;4.03;;;32.10;1.00;;;;;;4991574;28;20181;-76
2023/06/12 14:05:37;;;;;;;5.87;4.27;;;32.30;1.00;;;;;;4989376;28;20435;-74
2023/06/12 14:08:04;;;;;;;5.37;4.23;;;32.20;1.00;;;;;;4993042;28;20648;-73
2023/06/12 14:10:31;;;;;;;12.43;4.13;;;32.30;1.00;;;;;;4993112;28;20551;-73
2023/06/12 14:12:57;;;;;;;6.67;4.17;;;32.40;1.00;;;;;;4995529;28;20439;-74
2023/06/12 14:15:23;;;;;;;4.57;4.10;;;32.50;1.00;;;;;;4989990;28;20425;-74
2023/06/12 14:17:49;;;;;;;7.80;4.30;;;32.50;1.00;;;;;;4991532;28;20189;-74
2023/06/12 14:20:15;;;;;;;4.60;4.20;;;32.50;1.00;;;;;;4992188;28;20201;-74
2023/06/12 14:22:44;;;;;;;4.20;3.80;;;32.20;1.00;;;;;;4992976;28;20433;-75
2023/06/12 14:25:10;;;;;;;4.10;3.70;;;32.40;1.00;;;;;;4994164;28;20522;-74
2023/06/12 14:27:36;;;;;;;6.03;3.90;;;32.50;1.00;;;;;;4996684;28;20515;-73
2023/06/12 14:30:02;;;;;;;4.80;4.20;;;32.50;1.00;;;;;;4993958;28;20198;-87
2023/06/12 14:32:33;;;;;;;7.40;4.00;;;32.60;1.00;;;;;;4985612;28;20203;-86
2023/06/12 14:35:26;;;;;;;6.60;4.00;;;32.60;1.00;;;;;;4980864;28;20421;-87
2023/06/12 14:38:44;;;;;;;4.73;4.00;;;32.50;1.00;;;;;;4983690;28;20439;-89
2023/06/12 14:41:15;;;;;;;5.67;4.07;;;32.50;1.00;;;;;;4977063;28;20436;-87
2023/06/12 14:43:42;;;;;;;7.60;4.27;;;32.60;1.00;;;;;;4961580;28;20955;-87
2023/06/12 14:46:26;;;;;;;6.33;4.20;;;32.70;1.00;;;;;;4969341;28;20440;-88
2023/06/12 14:49:09;;;;;;;5.27;4.17;;;32.50;1.00;;;;;;4979762;28;20432;-83
2023/06/12 14:51:39;;;;;;;4.47;4.07;;;32.50;1.00;;;;;;4960072;28;20929;-82
2023/06/12 14:54:09;;;;;;;5.03;4.17;;;32.60;1.00;;;;;;4979195;28;20423;-82
2023/06/12 14:59:57;;;;;;;9.43;4.30;;;32.40;1.00;;;;;;4994444;28;20459;-89
2023/06/12 15:02:45;;;;;;;5.23;3.87;;;32.60;1.00;;;;;;4973261;28;20884;-95
2023/06/12 15:05:39;;;;;;;5.83;4.13;;;32.80;1.00;;;;;;4972074;28;20186;-93
2023/06/12 15:08:06;;;;;;;10.83;4.90;;;33.40;1.00;;;;;;4974172;28;20461;-93
2023/06/12 15:10:51;;;;;;;10.00;4.60;;;34.60;1.00;;;;;;4971394;28;20522;-92
2023/06/12 15:16:39;;;;;;;4.70;3.80;;;36.90;1.00;;;;;;4996861;28;20429;-88
2023/06/12 15:22:28;;;;;;;4.17;3.30;;;40.00;1.00;;;;;;4996812;28;20404;-96
2023/06/12 15:24:53;;;;;;;8.73;3.00;;;41.30;1.00;;;;;;4978190;28;20471;-89
2023/06/12 15:27:19;;;;;;;5.93;3.90;;;41.50;1.00;;;;;;4980965;28;20424;-96
2023/06/12 15:29:45;;;;;;;5.20;3.77;;;41.60;1.00;;;;;;4978907;28;20569;-89
2023/06/12 15:33:01;;;;;;;3.97;3.20;;;41.50;1.00;;;;;;4977963;28;20182;-96
2023/06/12 15:35:27;;;;;;;3.20;2.90;;;42.90;1.00;;;;;;4979641;28;20181;-90
2023/06/12 15:37:53;;;;;;;3.67;3.37;;;43.70;1.00;;;;;;4978482;28;20428;-93
2023/06/12 15:40:33;;;;;;;7.90;3.67;;;42.60;1.00;;;;;;4978118;28;20207;-92
2023/06/12 15:43:15;;;;;;;3.50;3.20;;;41.10;1.00;;;;;;4982510;28;20273;-94
2023/06/12 15:45:41;;;;;;;3.90;3.57;;;40.00;1.00;;;;;;4974466;28;20440;-82
2023/06/12 15:48:07;;;;;;;10.00;4.00;;;39.90;1.00;;;;;;4993675;28;20436;-86
2023/06/12 15:50:51;;;;;;;4.40;3.37;;;40.60;1.00;;;;;;4994769;28;20178;-88
2023/06/12 15:53:17;;;;;;;3.40;3.20;;;41.90;1.00;;;;;;4998793;28;20181;-86
2023/06/12 15:55:44;;;;;;;4.13;3.47;;;43.00;1.00;;;;;;4993069;28;20445;-87
2023/06/12 15:58:09;;;;;;;3.20;3.00;;;44.20;1.00;;;;;;4975012;28;20209;-87
2023/06/12 16:00:35;;;;;;;4.97;3.03;;;44.40;1.00;;;;;;4993787;28;20445;-90
2023/06/12 16:03:01;;;;;;;3.20;3.10;;;45.00;1.00;;;;;;4993313;28;20181;-91
2023/06/12 16:05:27;;;;;;;3.00;2.83;;;46.00;1.00;;;;;;4994633;28;20232;-90
2023/06/12 16:07:53;;;;;;;3.20;3.00;;;46.20;1.00;;;;;;4992989;28;20172;-92
2023/06/12 16:10:18;;;;;;;4.57;3.30;;;47.00;1.00;;;;;;4994027;28;20181;-91
2023/06/12 16:12:44;;;;;;;3.47;3.00;;;47.10;1.00;;;;;;4992114;28;20178;-91
2023/06/12 16:15:10;;;;;;;2.90;2.70;;;47.00;1.00;;;;;;4991651;28;20667;-90
2023/06/12 16:21:04;;;;;;;3.00;2.80;;;48.20;1.00;;;;;;4994877;28;20224;-96
2023/06/12 16:23:30;;;;;;;2.10;2.10;;;48.40;1.00;;;;;;4979875;28;20428;-91
2023/06/12 16:26:38;;;;;;;8.50;2.40;;;48.90;1.00;;;;;;4994971;28;20515;-96
2023/06/12 16:29:03;;;;;;;3.00;2.60;;;48.80;1.00;;;;;;4978051;28;20197;-92
2023/06/12 16:32:21;;;;;;;4.83;2.47;;;48.40;1.00;;;;;;4977673;28;20443;-96
2023/06/12 16:35:09;;;;;;;2.70;2.60;;;48.70;1.00;;;;;;4957626;28;20177;-92
2023/06/12 16:38:27;;;;;;;2.87;2.77;;;48.20;1.00;;;;;;4969699;28;20488;-92
2023/06/12 16:44:15;;;;;;;2.50;2.33;;;48.80;1.00;;;;;;4991738;28;20403;-87
2023/06/12 16:47:03;;;;;;;3.03;2.80;;;48.60;1.00;;;;;;4975670;28;20424;-86
2023/06/12 16:50:09;;;;;;;2.90;2.70;;;48.50;1.00;;;;;;4993738;28;20158;-87
2023/06/12 16:52:34;;;;;;;2.40;2.30;;;48.70;1.00;;;;;;4972690;28;20447;-85
2023/06/12 16:55:04;;;;;;;3.00;2.73;;;49.00;1.00;;;;;;4973274;28;20429;-86
2023/06/12 16:57:39;;;;;;;2.90;2.70;;;48.10;1.00;;;;;;4985407;28;20263;-86
2023/06/12 17:00:39;;;;;;;2.87;2.67;;;48.40;1.00;;;;;;4988238;28;20451;-92
2023/06/12 17:06:27;;;;;;;2.80;2.60;;;49.30;1.00;;;;;;4998564;28;20380;-94
2023/06/12 17:08:58;;;;;;;2.63;2.40;;;49.40;1.00;;;;;;4983319;28;20443;-97
2023/06/12 17:14:58;;;;;;;2.70;2.50;;;49.50;1.00;;;;;;5007192;28;20918;-85
2023/06/12 17:17:28;;;;;;;3.27;2.33;;;49.70;1.00;;;;;;4977548;28;20467;-84
2023/06/12 17:20:10;;;;;;;3.10;2.70;;;49.50;1.00;;;;;;4993688;28;20492;-86
2023/06/12 17:25:57;;;;;;;2.93;2.70;;;49.00;1.00;;;;;;4996243;28;20540;-86
2023/06/12 17:31:45;;;;;;;5.07;2.80;;;48.30;1.00;;;;;;4990568;28;20431;-96